sensor_id;sensor_type;location;lat;lon;timestamp;P1;durP1;ratioP1;P2;durP2;ratioP2
80332;SDS011;69652;51.864;-2.246;2023-10-13T00:01:30;1.75;;;0.43;;
80332;SDS011;69652;51.864;-2.246;2023-10-13T00:03:55;1.23;;;0.40;;
80332;SDS011;69652;51.864;-2.246;2023-10-13T00:06:21;1.27;;;0.45;;
80332;SDS011;69652;51.864;-2.246;2023-10-13T00:08:46;0.93;;;0.43;;
80332;SDS011;69652;51.864;-2.246;2023-10-13T00:11:12;2.40;;;0.57;;
80332;SDS011;69652;51.864;-2.246;2023-10-13T00:13:38;1.17;;;0.47;;
80332;SDS011;69652;51.864;-2.246;2023-10-13T00:16:16;1.40;;;0.35;;
80332;SDS011;69652;51.864;-2.246;2023-10-13T00:18:46;1.83;;;0.50;;
80332;SDS011;69652;51.864;-2.246;2023-10-13T00:21:13;0.40;;;0.20;;
80332;SDS011;69652;51.864;-2.246;2023-10-13T00:23:44;0.43;;;0.30;;
80332;SDS011;69652;51.864;-2.246;2023-10-13T00:26:19;0.55;;;0.30;;
80332;SDS011;69652;51.864;-2.246;2023-10-13T00:28:52;0.70;;;0.35;;
80332;SDS011;69652;51.864;-2.246;2023-10-13T00:31:24;0.55;;;0.20;;
80332;SDS011;69652;51.864;-2.246;2023-10-13T00:34:01;1.65;;;0.40;;
80332;SDS011;69652;51.864;-2.246;2023-10-13T00:36:37;0.45;;;0.22;;
80332;SDS011;69652;51.864;-2.246;2023-10-13T00:41:48;0.43;;;0.30;;
80332;SDS011;69652;51.864;-2.246;2023-10-13T00:44:20;1.08;;;0.30;;
80332;SDS011;69652;51.864;-2.246;2023-10-13T00:47:03;4.40;;;0.80;;
80332;SDS011;69652;51.864;-2.246;2023-10-13T00:49:33;3.97;;;0.65;;
80332;SDS011;69652;51.864;-2.246;2023-10-13T00:52:03;1.52;;;0.43;;
80332;SDS011;69652;51.864;-2.246;2023-10-13T00:54:29;12.15;;;1.38;;
80332;SDS011;69652;51.864;-2.246;2023-10-13T00:56:55;1.63;;;0.60;;
80332;SDS011;69652;51.864;-2.246;2023-10-13T00:59:29;3.55;;;0.60;;
80332;SDS011;69652;51.864;-2.246;2023-10-13T01:01:59;1.92;;;0.50;;
80332;SDS011;69652;51.864;-2.246;2023-10-13T01:04:45;5.05;;;0.60;;
80332;SDS011;69652;51.864;-2.246;2023-10-13T01:07:11;1.23;;;0.45;;
80332;SDS011;69652;51.864;-2.246;2023-10-13T01:09:41;5.32;;;0.85;;
80332;SDS011;69652;51.864;-2.246;2023-10-13T01:12:07;6.53;;;2.00;;
80332;SDS011;69652;51.864;-2.246;2023-10-13T01:14:33;4.28;;;1.77;;
80332;SDS011;69652;51.864;-2.246;2023-10-13T01:17:00;7.18;;;2.67;;
80332;SDS011;69652;51.864;-2.246;2023-10-13T01:19:26;8.45;;;2.38;;
80332;SDS011;69652;51.864;-2.246;2023-10-13T01:21:52;7.45;;;2.50;;
80332;SDS011;69652;51.864;-2.246;2023-10-13T01:24:32;5.93;;;2.58;;
80332;SDS011;69652;51.864;-2.246;2023-10-13T01:27:00;5.63;;;2.80;;
80332;SDS011;69652;51.864;-2.246;2023-10-13T01:29:40;8.10;;;2.83;;
80332;SDS011;69652;51.864;-2.246;2023-10-13T01:32:05;9.05;;;2.97;;
80332;SDS011;69652;51.864;-2.246;2023-10-13T01:34:30;6.97;;;3.15;;
80332;SDS011;69652;51.864;-2.246;2023-10-13T01:36:58;5.88;;;3.13;;
80332;SDS011;69652;51.864;-2.246;2023-10-13T01:39:30;8.57;;;3.17;;
80332;SDS011;69652;51.864;-2.246;2023-10-13T01:41:56;6.20;;;3.13;;
80332;SDS011;69652;51.864;-2.246;2023-10-13T01:44:22;6.60;;;3.50;;
80332;SDS011;69652;51.864;-2.246;2023-10-13T01:46:57;10.05;;;3.97;;
80332;SDS011;69652;51.864;-2.246;2023-10-13T01:52:07;6.32;;;2.75;;
80332;SDS011;69652;51.864;-2.246;2023-10-13T01:54:33;6.97;;;3.90;;
80332;SDS011;69652;51.864;-2.246;2023-10-13T01:56:58;6.55;;;3.13;;
80332;SDS011;69652;51.864;-2.246;2023-10-13T01:59:25;10.38;;;3.78;;
80332;SDS011;69652;51.864;-2.246;2023-10-13T02:01:52;9.77;;;4.15;;
80332;SDS011;69652;51.864;-2.246;2023-10-13T02:04:20;9.60;;;4.30;;
80332;SDS011;69652;51.864;-2.246;2023-10-13T02:06:46;9.77;;;4.25;;
80332;SDS011;69652;51.864;-2.246;2023-10-13T02:09:12;13.98;;;5.03;;
80332;SDS011;69652;51.864;-2.246;2023-10-13T02:11:51;9.73;;;4.72;;
80332;SDS011;69652;51.864;-2.246;2023-10-13T02:14:20;9.98;;;4.30;;
80332;SDS011;69652;51.864;-2.246;2023-10-13T02:16:47;11.85;;;4.97;;
80332;SDS011;69652;51.864;-2.246;2023-10-13T02:19:15;7.82;;;4.13;;
80332;SDS011;69652;51.864;-2.246;2023-10-13T02:21:44;12.25;;;4.70;;
80332;SDS011;69652;51.864;-2.246;2023-10-13T02:24:10;15.88;;;5.53;;
80332;SDS011;69652;51.864;-2.246;2023-10-13T02:26:43;11.55;;;5.13;;
80332;SDS011;69652;51.864;-2.246;2023-10-13T02:29:09;11.20;;;4.55;;
80332;SDS011;69652;51.864;-2.246;2023-10-13T02:31:42;10.65;;;4.68;;
80332;SDS011;69652;51.864;-2.246;2023-10-13T02:34:19;10.95;;;4.57;;
80332;SDS011;69652;51.864;-2.246;2023-10-13T02:36:44;15.02;;;4.93;;
80332;SDS011;69652;51.864;-2.246;2023-10-13T02:39:17;9.13;;;4.07;;
80332;SDS011;69652;51.864;-2.246;2023-10-13T02:41:50;10.70;;;5.35;;
80332;SDS011;69652;51.864;-2.246;2023-10-13T02:44:16;8.75;;;4.53;;
80332;SDS011;69652;51.864;-2.246;2023-10-13T02:46:52;7.95;;;4.18;;
80332;SDS011;69652;51.864;-2.246;2023-10-13T02:49:20;11.10;;;4.15;;
80332;SDS011;69652;51.864;-2.246;2023-10-13T02:51:47;10.23;;;4.78;;
80332;SDS011;69652;51.864;-2.246;2023-10-13T02:54:12;9.45;;;4.03;;
80332;SDS011;69652;51.864;-2.246;2023-10-13T02:56:43;8.90;;;4.47;;
80332;SDS011;69652;51.864;-2.246;2023-10-13T02:59:14;8.82;;;4.40;;
80332;SDS011;69652;51.864;-2.246;2023-10-13T03:01:40;9.80;;;4.85;;
80332;SDS011;69652;51.864;-2.246;2023-10-13T03:04:06;11.02;;;4.55;;
80332;SDS011;69652;51.864;-2.246;2023-10-13T03:06:34;8.75;;;4.72;;
80332;SDS011;69652;51.864;-2.246;2023-10-13T03:09:01;12.05;;;5.32;;
80332;SDS011;69652;51.864;-2.246;2023-10-13T03:11:42;13.20;;;5.90;;
80332;SDS011;69652;51.864;-2.246;2023-10-13T03:14:13;15.77;;;5.57;;
80332;SDS011;69652;51.864;-2.246;2023-10-13T03:16:59;10.13;;;4.40;;
80332;SDS011;69652;51.864;-2.246;2023-10-13T03:19:33;7.97;;;5.18;;
80332;SDS011;69652;51.864;-2.246;2023-10-13T03:22:03;17.45;;;6.32;;
80332;SDS011;69652;51.864;-2.246;2023-10-13T03:24:42;18.85;;;6.15;;
80332;SDS011;69652;51.864;-2.246;2023-10-13T03:27:14;18.58;;;6.07;;
80332;SDS011;69652;51.864;-2.246;2023-10-13T03:29:48;14.60;;;6.00;;
80332;SDS011;69652;51.864;-2.246;2023-10-13T03:32:19;17.75;;;6.38;;
80332;SDS011;69652;51.864;-2.246;2023-10-13T03:34:46;17.77;;;6.88;;
80332;SDS011;69652;51.864;-2.246;2023-10-13T03:37:24;13.65;;;6.20;;
80332;SDS011;69652;51.864;-2.246;2023-10-13T03:42:41;20.27;;;6.75;;
80332;SDS011;69652;51.864;-2.246;2023-10-13T03:45:06;18.90;;;6.72;;
80332;SDS011;69652;51.864;-2.246;2023-10-13T03:47:35;20.80;;;7.40;;
80332;SDS011;69652;51.864;-2.246;2023-10-13T03:50:03;19.27;;;8.15;;
80332;SDS011;69652;51.864;-2.246;2023-10-13T03:52:57;16.25;;;6.32;;
80332;SDS011;69652;51.864;-2.246;2023-10-13T03:55:23;22.60;;;8.18;;
80332;SDS011;69652;51.864;-2.246;2023-10-13T03:57:52;15.35;;;7.10;;
80332;SDS011;69652;51.864;-2.246;2023-10-13T04:00:19;19.65;;;8.68;;
80332;SDS011;69652;51.864;-2.246;2023-10-13T04:02:54;21.60;;;7.85;;
80332;SDS011;69652;51.864;-2.246;2023-10-13T04:05:34;19.05;;;7.80;;
80332;SDS011;69652;51.864;-2.246;2023-10-13T04:08:06;23.50;;;6.93;;
80332;SDS011;69652;51.864;-2.246;2023-10-13T04:10:51;21.92;;;6.72;;
80332;SDS011;69652;51.864;-2.246;2023-10-13T04:13:17;23.38;;;7.30;;
80332;SDS011;69652;51.864;-2.246;2023-10-13T04:16:03;15.60;;;6.50;;
80332;SDS011;69652;51.864;-2.246;2023-10-13T04:18:47;21.55;;;7.20;;
80332;SDS011;69652;51.864;-2.246;2023-10-13T04:21:19;26.55;;;7.35;;
80332;SDS011;69652;51.864;-2.246;2023-10-13T04:24:03;20.48;;;7.13;;
80332;SDS011;69652;51.864;-2.246;2023-10-13T04:26:51;17.63;;;6.63;;
80332;SDS011;69652;51.864;-2.246;2023-10-13T04:29:35;24.98;;;7.53;;
80332;SDS011;69652;51.864;-2.246;2023-10-13T04:32:30;19.17;;;7.35;;
80332;SDS011;69652;51.864;-2.246;2023-10-13T04:35:03;18.95;;;6.45;;
80332;SDS011;69652;51.864;-2.246;2023-10-13T04:37:39;20.00;;;7.30;;
80332;SDS011;69652;51.864;-2.246;2023-10-13T04:40:13;17.58;;;6.45;;
80332;SDS011;69652;51.864;-2.246;2023-10-13T04:42:39;26.73;;;7.13;;
80332;SDS011;69652;51.864;-2.246;2023-10-13T04:45:29;20.98;;;7.10;;
80332;SDS011;69652;51.864;-2.246;2023-10-13T04:47:57;20.77;;;6.38;;
80332;SDS011;69652;51.864;-2.246;2023-10-13T04:50:52;23.55;;;6.32;;
80332;SDS011;69652;51.864;-2.246;2023-10-13T04:53:44;22.40;;;7.60;;
80332;SDS011;69652;51.864;-2.246;2023-10-13T04:56:28;20.35;;;6.80;;
80332;SDS011;69652;51.864;-2.246;2023-10-13T04:59:05;20.73;;;6.18;;
80332;SDS011;69652;51.864;-2.246;2023-10-13T05:01:43;22.63;;;6.82;;
80332;SDS011;69652;51.864;-2.246;2023-10-13T05:04:40;24.95;;;7.00;;
80332;SDS011;69652;51.864;-2.246;2023-10-13T05:07:24;24.73;;;6.65;;
80332;SDS011;69652;51.864;-2.246;2023-10-13T05:10:08;25.05;;;6.25;;
80332;SDS011;69652;51.864;-2.246;2023-10-13T05:12:52;15.52;;;6.00;;
80332;SDS011;69652;51.864;-2.246;2023-10-13T05:15:42;25.90;;;5.80;;
80332;SDS011;69652;51.864;-2.246;2023-10-13T05:18:32;22.50;;;6.50;;
80332;SDS011;69652;51.864;-2.246;2023-10-13T05:21:17;21.10;;;6.18;;
80332;SDS011;69652;51.864;-2.246;2023-10-13T05:24:01;27.90;;;6.60;;
80332;SDS011;69652;51.864;-2.246;2023-10-13T05:26:46;22.47;;;7.83;;
80332;SDS011;69652;51.864;-2.246;2023-10-13T05:29:30;24.38;;;7.38;;
80332;SDS011;69652;51.864;-2.246;2023-10-13T05:32:14;20.88;;;6.70;;
80332;SDS011;69652;51.864;-2.246;2023-10-13T05:34:57;22.10;;;6.75;;
80332;SDS011;69652;51.864;-2.246;2023-10-13T05:37:41;26.40;;;6.35;;
80332;SDS011;69652;51.864;-2.246;2023-10-13T05:40:25;28.65;;;7.82;;
80332;SDS011;69652;51.864;-2.246;2023-10-13T05:43:09;21.58;;;6.25;;
80332;SDS011;69652;51.864;-2.246;2023-10-13T05:45:55;20.20;;;5.75;;
80332;SDS011;69652;51.864;-2.246;2023-10-13T05:48:44;21.70;;;6.38;;
80332;SDS011;69652;51.864;-2.246;2023-10-13T05:51:27;18.48;;;5.65;;
80332;SDS011;69652;51.864;-2.246;2023-10-13T05:54:17;24.52;;;5.97;;
80332;SDS011;69652;51.864;-2.246;2023-10-13T05:56:46;16.13;;;4.70;;
80332;SDS011;69652;51.864;-2.246;2023-10-13T05:59:33;17.27;;;4.88;;
80332;SDS011;69652;51.864;-2.246;2023-10-13T06:02:19;18.38;;;5.05;;
80332;SDS011;69652;51.864;-2.246;2023-10-13T06:05:04;21.80;;;5.10;;
80332;SDS011;69652;51.864;-2.246;2023-10-13T06:07:49;17.30;;;4.10;;
80332;SDS011;69652;51.864;-2.246;2023-10-13T06:10:33;20.30;;;5.37;;
80332;SDS011;69652;51.864;-2.246;2023-10-13T06:13:28;12.95;;;4.18;;
80332;SDS011;69652;51.864;-2.246;2023-10-13T06:16:13;17.05;;;4.30;;
80332;SDS011;69652;51.864;-2.246;2023-10-13T06:18:59;15.80;;;4.88;;
80332;SDS011;69652;51.864;-2.246;2023-10-13T06:21:43;17.27;;;5.18;;
80332;SDS011;69652;51.864;-2.246;2023-10-13T06:24:28;19.45;;;4.68;;
80332;SDS011;69652;51.864;-2.246;2023-10-13T06:27:12;16.27;;;4.20;;
80332;SDS011;69652;51.864;-2.246;2023-10-13T06:29:57;14.55;;;4.22;;
80332;SDS011;69652;51.864;-2.246;2023-10-13T06:32:22;12.98;;;3.95;;
80332;SDS011;69652;51.864;-2.246;2023-10-13T06:34:54;14.60;;;4.15;;
80332;SDS011;69652;51.864;-2.246;2023-10-13T06:37:23;21.45;;;4.22;;
80332;SDS011;69652;51.864;-2.246;2023-10-13T06:39:56;18.65;;;4.10;;
80332;SDS011;69652;51.864;-2.246;2023-10-13T06:42:39;15.45;;;3.75;;
80332;SDS011;69652;51.864;-2.246;2023-10-13T06:45:08;13.40;;;3.50;;
80332;SDS011;69652;51.864;-2.246;2023-10-13T06:47:37;24.98;;;4.63;;
80332;SDS011;69652;51.864;-2.246;2023-10-13T06:50:06;19.67;;;3.85;;
80332;SDS011;69652;51.864;-2.246;2023-10-13T06:52:41;20.70;;;3.57;;
80332;SDS011;69652;51.864;-2.246;2023-10-13T06:55:10;18.25;;;4.03;;
80332;SDS011;69652;51.864;-2.246;2023-10-13T06:57:42;18.38;;;3.33;;
80332;SDS011;69652;51.864;-2.246;2023-10-13T07:00:09;17.90;;;3.80;;
80332;SDS011;69652;51.864;-2.246;2023-10-13T07:02:44;15.63;;;3.65;;
80332;SDS011;69652;51.864;-2.246;2023-10-13T07:05:11;15.95;;;3.70;;
80332;SDS011;69652;51.864;-2.246;2023-10-13T07:07:39;18.17;;;3.55;;
80332;SDS011;69652;51.864;-2.246;2023-10-13T07:10:10;14.15;;;3.38;;
80332;SDS011;69652;51.864;-2.246;2023-10-13T07:12:37;22.35;;;3.70;;
80332;SDS011;69652;51.864;-2.246;2023-10-13T07:15:08;17.73;;;3.60;;
80332;SDS011;69652;51.864;-2.246;2023-10-13T07:17:45;13.07;;;2.70;;
80332;SDS011;69652;51.864;-2.246;2023-10-13T07:20:12;13.73;;;3.10;;
80332;SDS011;69652;51.864;-2.246;2023-10-13T07:22:41;13.75;;;2.97;;
80332;SDS011;69652;51.864;-2.246;2023-10-13T07:25:20;22.80;;;3.60;;
80332;SDS011;69652;51.864;-2.246;2023-10-13T07:27:50;14.52;;;3.22;;
80332;SDS011;69652;51.864;-2.246;2023-10-13T07:30:15;20.73;;;3.38;;
80332;SDS011;69652;51.864;-2.246;2023-10-13T07:32:45;18.30;;;3.10;;
80332;SDS011;69652;51.864;-2.246;2023-10-13T07:35:15;14.60;;;3.05;;
80332;SDS011;69652;51.864;-2.246;2023-10-13T07:37:45;18.05;;;4.03;;
80332;SDS011;69652;51.864;-2.246;2023-10-13T07:40:17;15.75;;;2.85;;
80332;SDS011;69652;51.864;-2.246;2023-10-13T07:42:48;19.90;;;3.55;;
80332;SDS011;69652;51.864;-2.246;2023-10-13T07:45:14;9.82;;;2.60;;
80332;SDS011;69652;51.864;-2.246;2023-10-13T07:47:43;14.00;;;2.25;;
80332;SDS011;69652;51.864;-2.246;2023-10-13T07:50:08;13.35;;;2.38;;
80332;SDS011;69652;51.864;-2.246;2023-10-13T07:52:34;14.50;;;2.45;;
80332;SDS011;69652;51.864;-2.246;2023-10-13T07:55:05;12.98;;;2.22;;
80332;SDS011;69652;51.864;-2.246;2023-10-13T07:57:39;11.55;;;2.72;;
80332;SDS011;69652;51.864;-2.246;2023-10-13T08:00:22;16.02;;;3.45;;
80332;SDS011;69652;51.864;-2.246;2023-10-13T08:03:03;12.68;;;2.95;;
80332;SDS011;69652;51.864;-2.246;2023-10-13T08:05:55;15.85;;;2.78;;
80332;SDS011;69652;51.864;-2.246;2023-10-13T08:08:44;14.98;;;2.05;;
80332;SDS011;69652;51.864;-2.246;2023-10-13T08:11:15;11.85;;;2.55;;
80332;SDS011;69652;51.864;-2.246;2023-10-13T08:13:48;13.13;;;3.47;;
80332;SDS011;69652;51.864;-2.246;2023-10-13T08:16:21;14.85;;;4.25;;
80332;SDS011;69652;51.864;-2.246;2023-10-13T08:18:51;13.88;;;2.95;;
80332;SDS011;69652;51.864;-2.246;2023-10-13T08:21:17;9.32;;;1.90;;
80332;SDS011;69652;51.864;-2.246;2023-10-13T08:23:48;16.17;;;2.80;;
80332;SDS011;69652;51.864;-2.246;2023-10-13T08:26:20;10.82;;;2.25;;
80332;SDS011;69652;51.864;-2.246;2023-10-13T08:29:01;9.20;;;1.88;;
80332;SDS011;69652;51.864;-2.246;2023-10-13T08:31:59;18.40;;;2.65;;
80332;SDS011;69652;51.864;-2.246;2023-10-13T08:34:40;9.85;;;1.77;;
80332;SDS011;69652;51.864;-2.246;2023-10-13T08:37:08;8.23;;;1.50;;
80332;SDS011;69652;51.864;-2.246;2023-10-13T08:39:45;9.93;;;2.33;;
80332;SDS011;69652;51.864;-2.246;2023-10-13T08:42:26;9.25;;;1.40;;
80332;SDS011;69652;51.864;-2.246;2023-10-13T08:45:15;8.73;;;1.48;;
80332;SDS011;69652;51.864;-2.246;2023-10-13T08:47:48;10.65;;;1.70;;
80332;SDS011;69652;51.864;-2.246;2023-10-13T08:50:46;9.32;;;1.33;;
80332;SDS011;69652;51.864;-2.246;2023-10-13T08:53:25;6.85;;;1.13;;
80332;SDS011;69652;51.864;-2.246;2023-10-13T08:56:08;6.85;;;1.27;;
80332;SDS011;69652;51.864;-2.246;2023-10-13T08:58:54;8.50;;;1.42;;
80332;SDS011;69652;51.864;-2.246;2023-10-13T09:01:27;6.72;;;1.45;;
80332;SDS011;69652;51.864;-2.246;2023-10-13T09:04:14;8.25;;;1.27;;
80332;SDS011;69652;51.864;-2.246;2023-10-13T09:09:25;7.43;;;1.20;;
80332;SDS011;69652;51.864;-2.246;2023-10-13T09:11:55;5.70;;;1.10;;
80332;SDS011;69652;51.864;-2.246;2023-10-13T09:14:34;7.57;;;1.35;;
80332;SDS011;69652;51.864;-2.246;2023-10-13T09:17:03;8.38;;;1.38;;
80332;SDS011;69652;51.864;-2.246;2023-10-13T09:22:24;7.53;;;1.63;;
80332;SDS011;69652;51.864;-2.246;2023-10-13T09:25:00;6.47;;;1.02;;
80332;SDS011;69652;51.864;-2.246;2023-10-13T09:27:28;8.43;;;1.10;;
80332;SDS011;69652;51.864;-2.246;2023-10-13T09:29:58;8.70;;;1.00;;
80332;SDS011;69652;51.864;-2.246;2023-10-13T09:32:43;8.60;;;1.17;;
80332;SDS011;69652;51.864;-2.246;2023-10-13T09:35:15;7.00;;;1.35;;
80332;SDS011;69652;51.864;-2.246;2023-10-13T09:37:45;9.35;;;1.15;;
80332;SDS011;69652;51.864;-2.246;2023-10-13T09:40:14;8.55;;;1.55;;
80332;SDS011;69652;51.864;-2.246;2023-10-13T09:43:00;5.25;;;1.13;;
80332;SDS011;69652;51.864;-2.246;2023-10-13T09:45:34;5.45;;;0.90;;
80332;SDS011;69652;51.864;-2.246;2023-10-13T09:48:19;8.95;;;1.17;;
80332;SDS011;69652;51.864;-2.246;2023-10-13T09:50:51;4.75;;;0.95;;
80332;SDS011;69652;51.864;-2.246;2023-10-13T09:53:21;7.60;;;1.23;;
80332;SDS011;69652;51.864;-2.246;2023-10-13T09:55:54;5.40;;;1.10;;
80332;SDS011;69652;51.864;-2.246;2023-10-13T09:58:26;9.43;;;1.27;;
80332;SDS011;69652;51.864;-2.246;2023-10-13T10:01:02;7.47;;;1.20;;
80332;SDS011;69652;51.864;-2.246;2023-10-13T10:03:45;7.93;;;1.23;;
80332;SDS011;69652;51.864;-2.246;2023-10-13T10:06:30;7.68;;;1.48;;
80332;SDS011;69652;51.864;-2.246;2023-10-13T10:09:08;6.95;;;1.40;;
80332;SDS011;69652;51.864;-2.246;2023-10-13T10:14:16;6.47;;;0.85;;
80332;SDS011;69652;51.864;-2.246;2023-10-13T10:16:51;4.25;;;0.77;;
80332;SDS011;69652;51.864;-2.246;2023-10-13T10:19:25;4.93;;;1.00;;
80332;SDS011;69652;51.864;-2.246;2023-10-13T10:22:01;6.70;;;1.25;;
80332;SDS011;69652;51.864;-2.246;2023-10-13T10:24:31;5.40;;;0.88;;
80332;SDS011;69652;51.864;-2.246;2023-10-13T10:26:58;4.15;;;0.60;;
80332;SDS011;69652;51.864;-2.246;2023-10-13T10:29:24;5.90;;;1.15;;
80332;SDS011;69652;51.864;-2.246;2023-10-13T10:31:49;6.32;;;0.75;;
80332;SDS011;69652;51.864;-2.246;2023-10-13T10:34:16;8.10;;;0.82;;
80332;SDS011;69652;51.864;-2.246;2023-10-13T10:36:53;7.38;;;1.10;;
80332;SDS011;69652;51.864;-2.246;2023-10-13T10:39:19;7.07;;;1.13;;
80332;SDS011;69652;51.864;-2.246;2023-10-13T10:41:46;5.10;;;0.88;;
80332;SDS011;69652;51.864;-2.246;2023-10-13T10:44:17;5.53;;;0.88;;
80332;SDS011;69652;51.864;-2.246;2023-10-13T10:47:08;5.80;;;1.17;;
80332;SDS011;69652;51.864;-2.246;2023-10-13T10:49:44;3.95;;;0.80;;
80332;SDS011;69652;51.864;-2.246;2023-10-13T10:52:11;4.18;;;1.33;;
80332;SDS011;69652;51.864;-2.246;2023-10-13T10:54:43;5.47;;;1.40;;
80332;SDS011;69652;51.864;-2.246;2023-10-13T10:57:09;10.20;;;3.15;;
80332;SDS011;69652;51.864;-2.246;2023-10-13T10:59:42;5.70;;;0.93;;
80332;SDS011;69652;51.864;-2.246;2023-10-13T11:02:09;6.85;;;0.75;;
80332;SDS011;69652;51.864;-2.246;2023-10-13T11:04:40;4.65;;;0.55;;
80332;SDS011;69652;51.864;-2.246;2023-10-13T11:07:20;4.05;;;0.63;;
80332;SDS011;69652;51.864;-2.246;2023-10-13T11:09:46;6.65;;;0.70;;
80332;SDS011;69652;51.864;-2.246;2023-10-13T11:12:13;4.05;;;0.70;;
80332;SDS011;69652;51.864;-2.246;2023-10-13T11:14:48;4.35;;;0.88;;
80332;SDS011;69652;51.864;-2.246;2023-10-13T11:17:25;3.33;;;0.50;;
80332;SDS011;69652;51.864;-2.246;2023-10-13T11:20:16;6.47;;;1.67;;
80332;SDS011;69652;51.864;-2.246;2023-10-13T11:22:50;3.80;;;1.35;;
80332;SDS011;69652;51.864;-2.246;2023-10-13T11:25:27;3.47;;;0.60;;
80332;SDS011;69652;51.864;-2.246;2023-10-13T11:28:09;4.18;;;0.65;;
80332;SDS011;69652;51.864;-2.246;2023-10-13T11:30:42;2.42;;;0.73;;
80332;SDS011;69652;51.864;-2.246;2023-10-13T11:33:14;2.67;;;0.60;;
80332;SDS011;69652;51.864;-2.246;2023-10-13T11:35:43;3.47;;;0.93;;
80332;SDS011;69652;51.864;-2.246;2023-10-13T11:38:22;2.85;;;0.52;;
80332;SDS011;69652;51.864;-2.246;2023-10-13T11:41:04;3.22;;;0.60;;
80332;SDS011;69652;51.864;-2.246;2023-10-13T11:44:12;1.98;;;0.50;;
80332;SDS011;69652;51.864;-2.246;2023-10-13T11:46:32;3.75;;;0.80;;
80332;SDS011;69652;51.864;-2.246;2023-10-13T11:49:10;3.70;;;0.50;;
80332;SDS011;69652;51.864;-2.246;2023-10-13T11:51:57;1.92;;;0.70;;
80332;SDS011;69652;51.864;-2.246;2023-10-13T11:54:43;4.30;;;0.77;;
80332;SDS011;69652;51.864;-2.246;2023-10-13T11:57:09;2.45;;;0.68;;
80332;SDS011;69652;51.864;-2.246;2023-10-13T11:59:34;4.28;;;1.20;;
80332;SDS011;69652;51.864;-2.246;2023-10-13T12:02:05;4.05;;;0.68;;
80332;SDS011;69652;51.864;-2.246;2023-10-13T12:04:49;0.73;;;0.20;;
80332;SDS011;69652;51.864;-2.246;2023-10-13T12:07:20;2.80;;;0.90;;
80332;SDS011;69652;51.864;-2.246;2023-10-13T12:10:05;2.30;;;0.40;;
80332;SDS011;69652;51.864;-2.246;2023-10-13T12:12:40;8.15;;;3.55;;
80332;SDS011;69652;51.864;-2.246;2023-10-13T12:15:07;5.65;;;2.42;;
80332;SDS011;69652;51.864;-2.246;2023-10-13T12:17:50;3.55;;;0.65;;
80332;SDS011;69652;51.864;-2.246;2023-10-13T12:20:15;12.07;;;5.03;;
80332;SDS011;69652;51.864;-2.246;2023-10-13T12:22:57;2.30;;;0.50;;
80332;SDS011;69652;51.864;-2.246;2023-10-13T12:25:25;2.53;;;0.70;;
80332;SDS011;69652;51.864;-2.246;2023-10-13T12:27:53;1.02;;;0.30;;
80332;SDS011;69652;51.864;-2.246;2023-10-13T12:30:43;2.83;;;0.60;;
80332;SDS011;69652;51.864;-2.246;2023-10-13T12:33:21;4.10;;;0.85;;
80332;SDS011;69652;51.864;-2.246;2023-10-13T12:35:57;4.50;;;0.80;;
80332;SDS011;69652;51.864;-2.246;2023-10-13T12:38:30;3.03;;;0.82;;
80332;SDS011;69652;51.864;-2.246;2023-10-13T12:41:14;2.55;;;0.57;;
80332;SDS011;69652;51.864;-2.246;2023-10-13T12:43:58;3.97;;;0.85;;
80332;SDS011;69652;51.864;-2.246;2023-10-13T12:46:42;4.72;;;1.48;;
80332;SDS011;69652;51.864;-2.246;2023-10-13T12:49:26;3.78;;;0.52;;
80332;SDS011;69652;51.864;-2.246;2023-10-13T12:52:10;4.22;;;0.63;;
80332;SDS011;69652;51.864;-2.246;2023-10-13T12:54:41;4.43;;;0.73;;
80332;SDS011;69652;51.864;-2.246;2023-10-13T12:57:12;3.75;;;0.68;;
80332;SDS011;69652;51.864;-2.246;2023-10-13T12:59:41;10.60;;;2.20;;
80332;SDS011;69652;51.864;-2.246;2023-10-13T13:02:07;7.15;;;1.25;;
80332;SDS011;69652;51.864;-2.246;2023-10-13T13:04:39;2.50;;;0.60;;
80332;SDS011;69652;51.864;-2.246;2023-10-13T13:07:09;5.63;;;0.98;;
80332;SDS011;69652;51.864;-2.246;2023-10-13T13:09:38;4.47;;;0.90;;
80332;SDS011;69652;51.864;-2.246;2023-10-13T13:12:04;4.60;;;1.05;;
80332;SDS011;69652;51.864;-2.246;2023-10-13T13:14:31;4.95;;;1.13;;
80332;SDS011;69652;51.864;-2.246;2023-10-13T13:16:59;6.47;;;1.20;;
80332;SDS011;69652;51.864;-2.246;2023-10-13T13:19:34;7.93;;;1.98;;
80332;SDS011;69652;51.864;-2.246;2023-10-13T13:22:05;12.57;;;1.90;;
80332;SDS011;69652;51.864;-2.246;2023-10-13T13:24:37;6.53;;;0.70;;
80332;SDS011;69652;51.864;-2.246;2023-10-13T13:27:12;5.05;;;0.73;;
80332;SDS011;69652;51.864;-2.246;2023-10-13T13:29:41;10.80;;;3.03;;
80332;SDS011;69652;51.864;-2.246;2023-10-13T13:32:07;14.48;;;6.63;;
80332;SDS011;69652;51.864;-2.246;2023-10-13T13:34:44;8.18;;;2.25;;
80332;SDS011;69652;51.864;-2.246;2023-10-13T13:39:45;10.18;;;2.47;;
80332;SDS011;69652;51.864;-2.246;2023-10-13T13:42:11;6.25;;;1.63;;
80332;SDS011;69652;51.864;-2.246;2023-10-13T13:44:42;6.32;;;1.30;;
80332;SDS011;69652;51.864;-2.246;2023-10-13T13:47:11;6.93;;;0.88;;
80332;SDS011;69652;51.864;-2.246;2023-10-13T13:49:38;7.90;;;0.93;;
80332;SDS011;69652;51.864;-2.246;2023-10-13T13:52:16;6.25;;;0.90;;
80332;SDS011;69652;51.864;-2.246;2023-10-13T13:54:46;4.85;;;0.75;;
80332;SDS011;69652;51.864;-2.246;2023-10-13T13:57:12;10.05;;;1.48;;
80332;SDS011;69652;51.864;-2.246;2023-10-13T13:59:38;7.72;;;2.55;;
80332;SDS011;69652;51.864;-2.246;2023-10-13T14:02:04;9.35;;;2.88;;
80332;SDS011;69652;51.864;-2.246;2023-10-13T14:04:45;11.75;;;4.72;;
80332;SDS011;69652;51.864;-2.246;2023-10-13T14:07:12;10.38;;;3.35;;
80332;SDS011;69652;51.864;-2.246;2023-10-13T14:09:40;13.13;;;3.70;;
80332;SDS011;69652;51.864;-2.246;2023-10-13T14:12:08;7.80;;;2.00;;
80332;SDS011;69652;51.864;-2.246;2023-10-13T14:14:52;10.15;;;2.88;;
80332;SDS011;69652;51.864;-2.246;2023-10-13T14:17:21;9.35;;;1.58;;
80332;SDS011;69652;51.864;-2.246;2023-10-13T14:19:57;6.90;;;1.30;;
80332;SDS011;69652;51.864;-2.246;2023-10-13T14:22:25;13.50;;;2.20;;
80332;SDS011;69652;51.864;-2.246;2023-10-13T14:24:51;6.32;;;1.00;;
80332;SDS011;69652;51.864;-2.246;2023-10-13T14:27:20;14.10;;;4.20;;
80332;SDS011;69652;51.864;-2.246;2023-10-13T14:29:48;19.10;;;6.93;;
80332;SDS011;69652;51.864;-2.246;2023-10-13T14:32:18;8.10;;;1.90;;
80332;SDS011;69652;51.864;-2.246;2023-10-13T14:34:45;15.00;;;2.13;;
80332;SDS011;69652;51.864;-2.246;2023-10-13T14:37:13;13.48;;;1.77;;
80332;SDS011;69652;51.864;-2.246;2023-10-13T14:39:42;10.13;;;1.75;;
80332;SDS011;69652;51.864;-2.246;2023-10-13T14:42:07;8.35;;;1.33;;
80332;SDS011;69652;51.864;-2.246;2023-10-13T14:44:33;7.00;;;1.42;;
80332;SDS011;69652;51.864;-2.246;2023-10-13T14:47:00;9.60;;;1.38;;
80332;SDS011;69652;51.864;-2.246;2023-10-13T14:49:27;8.77;;;1.23;;
80332;SDS011;69652;51.864;-2.246;2023-10-13T14:51:52;39.92;;;15.70;;
80332;SDS011;69652;51.864;-2.246;2023-10-13T14:54:20;12.63;;;3.20;;
80332;SDS011;69652;51.864;-2.246;2023-10-13T14:56:54;6.33;;;1.47;;
80332;SDS011;69652;51.864;-2.246;2023-10-13T14:59:21;11.07;;;1.30;;
80332;SDS011;69652;51.864;-2.246;2023-10-13T15:01:47;7.18;;;1.40;;
80332;SDS011;69652;51.864;-2.246;2023-10-13T15:04:14;12.52;;;3.10;;
80332;SDS011;69652;51.864;-2.246;2023-10-13T15:06:39;8.57;;;2.53;;
80332;SDS011;69652;51.864;-2.246;2023-10-13T15:09:05;3.80;;;1.30;;
80332;SDS011;69652;51.864;-2.246;2023-10-13T15:11:36;7.13;;;1.90;;
80332;SDS011;69652;51.864;-2.246;2023-10-13T15:14:02;5.88;;;1.40;;
80332;SDS011;69652;51.864;-2.246;2023-10-13T15:16:28;2.55;;;0.80;;
80332;SDS011;69652;51.864;-2.246;2023-10-13T15:18:54;4.15;;;0.70;;
80332;SDS011;69652;51.864;-2.246;2023-10-13T15:21:23;1.92;;;0.70;;
80332;SDS011;69652;51.864;-2.246;2023-10-13T15:23:59;3.95;;;0.85;;
80332;SDS011;69652;51.864;-2.246;2023-10-13T15:26:29;8.18;;;3.38;;